createdAt,value
2022-09-21T00:00:30.402Z,11.64
2022-09-21T00:03:22.222Z,11.64
2022-09-21T00:05:54.037Z,11.64
2022-09-21T00:08:25.866Z,11.65
2022-09-21T00:10:57.633Z,11.64
2022-09-21T00:13:29.964Z,11.63
2022-09-21T00:16:02.131Z,11.60
2022-09-21T00:18:34.156Z,11.59
2022-09-21T00:21:09.981Z,11.63
2022-09-21T00:23:42.849Z,11.63
2022-09-21T00:26:16.835Z,11.63
2022-09-21T00:28:54.852Z,11.61
2022-09-21T00:31:28.251Z,11.61
2022-09-21T00:34:01.222Z,11.60
2022-09-21T00:36:33.152Z,11.59
2022-09-21T00:39:05.463Z,11.56
2022-09-21T00:41:37.605Z,11.56
2022-09-21T00:44:29.843Z,11.60
2022-09-21T00:47:08.823Z,11.61
2022-09-21T00:49:42.610Z,11.61
2022-09-21T00:52:15.844Z,11.60
2022-09-21T00:54:52.592Z,11.62
2022-09-21T00:57:28.320Z,11.60
2022-09-21T01:00:05.398Z,11.60
2022-09-21T01:02:37.907Z,11.59
2022-09-21T01:05:11.508Z,11.59
2022-09-21T01:07:47.494Z,11.63
2022-09-21T01:10:21.424Z,11.63
2022-09-21T01:13:05.551Z,11.64
2022-09-21T01:15:47.491Z,11.66
2022-09-21T01:18:28.431Z,11.68
2022-09-21T01:21:18.095Z,11.71
2022-09-21T01:24:15.992Z,11.70
2022-09-21T01:27:21.067Z,11.69
2022-09-21T01:29:56.910Z,11.71
2022-09-21T01:32:34.358Z,11.75
2022-09-21T01:35:12.241Z,11.78
2022-09-21T01:37:48.490Z,11.79
2022-09-21T01:40:26.258Z,11.80
2022-09-21T01:43:01.043Z,11.80
2022-09-21T01:45:36.640Z,11.78
2022-09-21T01:48:09.476Z,11.79
2022-09-21T01:50:46.109Z,11.80
2022-09-21T01:53:23.625Z,11.81
2022-09-21T01:55:59.313Z,11.86
2022-09-21T01:58:36.405Z,11.85
2022-09-21T02:01:14.010Z,11.81
2022-09-21T02:03:50.940Z,11.81
2022-09-21T02:06:23.192Z,11.80
2022-09-21T02:08:56.143Z,11.81
2022-09-21T02:11:27.971Z,11.79
2022-09-21T02:13:59.738Z,11.78
2022-09-21T02:16:41.024Z,11.77
2022-09-21T02:19:22.390Z,11.78
2022-09-21T02:22:05.217Z,11.84
2022-09-21T02:24:43.371Z,11.84
2022-09-21T02:27:25.838Z,11.83
2022-09-21T02:30:05.662Z,11.84
2022-09-21T02:32:49.250Z,11.88
2022-09-21T02:35:32.944Z,11.92
2022-09-21T02:38:10.610Z,11.95
2022-09-21T02:40:51.290Z,11.97
2022-09-21T02:43:27.878Z,11.99
2022-09-21T02:46:05.450Z,12.03
2022-09-21T02:48:42.945Z,12.05
2022-09-21T02:51:18.506Z,12.08
2022-09-21T02:53:54.947Z,12.11
2022-09-21T02:56:28.732Z,12.14
2022-09-21T02:59:05.683Z,12.16
2022-09-21T03:01:40.728Z,12.17
2022-09-21T03:04:11.783Z,12.19
2022-09-21T03:06:43.822Z,12.18
2022-09-21T03:09:15.818Z,12.19
2022-09-21T03:11:48.165Z,12.19
2022-09-21T03:14:20.361Z,12.19
2022-09-21T03:16:52.330Z,12.19
2022-09-21T03:19:24.938Z,12.19
2022-09-21T03:21:57.024Z,12.17
2022-09-21T03:24:47.199Z,12.17
2022-09-21T03:27:21.475Z,12.16
2022-09-21T03:29:53.692Z,12.15
2022-09-21T03:32:27.010Z,12.14
2022-09-21T03:34:59.475Z,12.11
2022-09-21T03:37:31.536Z,12.08
2022-09-21T03:40:03.956Z,12.08
2022-09-21T03:42:35.980Z,12.08
2022-09-21T03:45:10.037Z,12.07
2022-09-21T03:47:42.323Z,12.04
2022-09-21T03:50:14.727Z,12.03
2022-09-21T03:52:46.675Z,12.02
2022-09-21T03:55:18.768Z,12.03
2022-09-21T03:57:50.843Z,12.03
2022-09-21T04:00:23.433Z,12.03
2022-09-21T04:02:56.181Z,12.03
2022-09-21T04:05:28.235Z,12.03
2022-09-21T04:08:02.161Z,12.03
2022-09-21T04:10:34.645Z,12.04
2022-09-21T04:13:06.640Z,12.05
2022-09-21T04:15:38.703Z,12.04
2022-09-21T04:18:10.711Z,12.05
2022-09-21T04:20:42.672Z,12.04
2022-09-21T04:23:14.619Z,12.04
2022-09-21T04:25:48.384Z,12.04
2022-09-21T04:28:20.356Z,12.05
2022-09-21T04:30:55.920Z,12.07
2022-09-21T04:33:28.072Z,12.08
2022-09-21T04:36:00.263Z,12.08
2022-09-21T04:38:33.732Z,12.06
2022-09-21T04:41:06.019Z,12.05
2022-09-21T04:43:38.115Z,12.04
2022-09-21T04:46:12.667Z,12.04
2022-09-21T04:48:44.861Z,12.03
2022-09-21T04:51:18.191Z,12.02
2022-09-21T04:53:50.262Z,12.00
2022-09-21T04:56:22.338Z,11.98
2022-09-21T04:58:54.459Z,11.98
2022-09-21T05:01:26.631Z,11.97
2022-09-21T05:04:01.913Z,11.95
2022-09-21T05:06:35.153Z,11.93
2022-09-21T05:09:25.014Z,11.91
2022-09-21T05:11:57.182Z,11.89
2022-09-21T05:14:29.216Z,11.87
2022-09-21T05:17:01.295Z,11.87
2022-09-21T05:19:33.322Z,11.90
2022-09-21T05:22:05.643Z,11.93
2022-09-21T05:24:37.734Z,11.95
2022-09-21T05:27:10.050Z,11.98
2022-09-21T05:29:43.597Z,12.02
2022-09-21T05:32:22.649Z,12.06
2022-09-21T05:35:04.530Z,12.08
2022-09-21T05:37:46.839Z,12.12
2022-09-21T05:40:20.323Z,12.14
2022-09-21T05:42:53.625Z,12.17
2022-09-21T05:45:29.007Z,12.21
2022-09-21T05:48:12.661Z,12.27
2022-09-21T05:51:03.475Z,12.32
2022-09-21T05:53:58.390Z,12.37
2022-09-21T05:56:45.307Z,12.46
2022-09-21T05:59:35.207Z,12.53
2022-09-21T06:02:15.470Z,12.59
2022-09-21T06:04:50.349Z,12.62
2022-09-21T06:07:22.475Z,12.65
2022-09-21T06:09:54.589Z,12.68
2022-09-21T06:12:26.700Z,12.69
2022-09-21T06:14:58.861Z,12.71
2022-09-21T06:17:30.873Z,12.74
2022-09-21T06:20:04.118Z,12.78
2022-09-21T06:22:36.490Z,12.83
2022-09-21T06:25:09.942Z,12.87
2022-09-21T06:27:41.941Z,12.92
2022-09-21T06:30:15.033Z,12.95
2022-09-21T06:32:47.007Z,12.98
2022-09-21T06:35:19.090Z,13.00
2022-09-21T06:37:51.107Z,13.02
2022-09-21T06:40:23.135Z,13.04
2022-09-21T06:42:59.140Z,13.04
2022-09-21T06:45:32.696Z,13.02
2022-09-21T06:48:05.170Z,13.00
2022-09-21T06:50:37.785Z,12.99
2022-09-21T06:53:09.849Z,12.98
2022-09-21T06:55:42.096Z,12.98
2022-09-21T06:58:14.120Z,12.98
2022-09-21T07:00:46.856Z,13.00
2022-09-21T07:03:19.487Z,13.05
2022-09-21T07:05:51.473Z,13.09
2022-09-21T07:11:16.338Z,13.17
2022-09-21T07:13:48.291Z,13.17
2022-09-21T07:16:21.695Z,13.15
2022-09-21T07:18:53.662Z,13.18
2022-09-21T07:21:25.786Z,13.25
2022-09-21T07:24:00.133Z,13.33
2022-09-21T07:26:32.208Z,13.39
2022-09-21T07:29:04.203Z,13.45
2022-09-21T07:31:36.834Z,13.53
2022-09-21T07:34:08.847Z,13.57
2022-09-21T07:36:40.878Z,13.62
2022-09-21T07:39:13.521Z,13.67
2022-09-21T07:41:45.562Z,13.71
2022-09-21T07:44:17.606Z,13.76
2022-09-21T07:46:51.040Z,13.81
2022-09-21T07:49:23.038Z,13.85
2022-09-21T07:51:55.120Z,13.88
2022-09-21T07:54:27.148Z,13.90
2022-09-21T07:57:16.909Z,13.94
2022-09-21T07:59:49.486Z,13.99
2022-09-21T08:02:21.505Z,14.03
2022-09-21T08:04:53.774Z,14.04
2022-09-21T08:07:26.777Z,14.04
2022-09-21T08:09:58.766Z,14.04
2022-09-21T08:12:30.781Z,14.07
2022-09-21T08:15:02.789Z,14.06
2022-09-21T08:17:34.816Z,14.11
2022-09-21T08:20:07.554Z,14.13
2022-09-21T08:22:39.593Z,14.13
2022-09-21T08:25:12.142Z,14.15
2022-09-21T08:27:44.270Z,14.18
2022-09-21T08:30:16.468Z,14.23
2022-09-21T08:32:51.414Z,14.30
2022-09-21T08:35:24.056Z,14.49
2022-09-21T08:37:57.479Z,14.71
2022-09-21T08:40:29.755Z,14.97
2022-09-21T08:43:08.400Z,15.21
2022-09-21T08:45:44.156Z,15.40
2022-09-21T08:48:25.301Z,15.55
2022-09-21T08:51:05.939Z,15.59
2022-09-21T08:53:40.423Z,15.61
2022-09-21T08:56:14.382Z,15.65
2022-09-21T08:58:46.442Z,15.69
2022-09-21T09:01:41.205Z,15.73
2022-09-21T09:04:28.066Z,15.77
2022-09-21T09:07:18.729Z,15.79
2022-09-21T09:10:19.080Z,15.79
2022-09-21T09:13:01.473Z,15.83
2022-09-21T09:15:45.367Z,15.97
2022-09-21T09:18:25.648Z,16.10
2022-09-21T09:21:03.079Z,16.15
2022-09-21T09:23:42.432Z,16.04
2022-09-21T09:26:20.663Z,15.90
2022-09-21T09:28:55.782Z,15.78
2022-09-21T09:31:33.049Z,15.83
2022-09-21T09:34:14.039Z,16.01
2022-09-21T09:36:59.193Z,16.22
2022-09-21T09:39:32.812Z,16.47
2022-09-21T09:42:23.456Z,16.59
2022-09-21T09:45:08.999Z,16.64
2022-09-21T09:47:51.342Z,16.66
2022-09-21T09:50:29.196Z,16.73
2022-09-21T09:53:06.577Z,16.77
2022-09-21T09:55:43.858Z,16.88
2022-09-21T09:58:24.097Z,17.11
2022-09-21T10:00:59.094Z,17.40
2022-09-21T10:03:31.828Z,17.59
2022-09-21T10:06:03.954Z,17.65
2022-09-21T10:08:47.696Z,17.77
2022-09-21T10:11:20.072Z,17.90
2022-09-21T10:13:53.834Z,18.02
2022-09-21T10:16:26.463Z,18.18
2022-09-21T10:19:01.772Z,18.37
2022-09-21T10:21:39.061Z,18.50
2022-09-21T10:24:21.931Z,18.33
2022-09-21T10:26:56.921Z,18.00
2022-09-21T10:29:39.881Z,17.64
2022-09-21T10:32:27.350Z,17.36
2022-09-21T10:35:21.958Z,17.10
2022-09-21T10:38:12.898Z,16.92
2022-09-21T10:40:46.622Z,16.75
2022-09-21T10:43:42.620Z,16.61
2022-09-21T10:46:16.734Z,16.40
2022-09-21T10:48:49.430Z,16.37
2022-09-21T10:51:31.931Z,16.38
2022-09-21T10:54:09.376Z,16.36
2022-09-21T10:56:54.154Z,16.29
2022-09-21T10:59:26.828Z,16.17
2022-09-21T11:02:00.551Z,16.08
2022-09-21T11:04:43.682Z,15.98
2022-09-21T11:07:26.222Z,15.91
2022-09-21T11:10:08.585Z,15.82
2022-09-21T11:12:50.968Z,15.82
2022-09-21T11:15:34.372Z,15.84
2022-09-21T11:18:14.686Z,15.90
2022-09-21T11:20:50.946Z,16.01
2022-09-21T11:23:42.045Z,16.19
2022-09-21T11:26:22.824Z,16.41
2022-09-21T11:29:00.295Z,16.57
2022-09-21T11:31:45.318Z,16.70
2022-09-21T11:34:27.118Z,16.84
2022-09-21T11:37:12.507Z,16.97
2022-09-21T11:40:03.002Z,17.08
2022-09-21T11:42:53.923Z,17.25
2022-09-21T11:45:47.215Z,17.41
2022-09-21T11:48:32.233Z,17.61
2022-09-21T11:51:19.054Z,17.75
2022-09-21T11:54:10.922Z,17.89
2022-09-21T11:56:51.299Z,18.06
2022-09-21T11:59:40.279Z,18.09
2022-09-21T12:02:37.804Z,18.05
2022-09-21T12:05:22.779Z,18.04
2022-09-21T12:08:17.948Z,18.06
2022-09-21T12:11:00.039Z,18.12
2022-09-21T12:13:42.023Z,18.17
2022-09-21T12:16:21.028Z,18.27
2022-09-21T12:19:04.620Z,18.29
2022-09-21T12:21:41.905Z,18.26
2022-09-21T12:24:20.804Z,18.28
2022-09-21T12:26:57.096Z,18.31
2022-09-21T12:29:37.259Z,18.35
2022-09-21T12:32:20.883Z,18.42
2022-09-21T12:34:57.624Z,18.49
2022-09-21T12:37:34.975Z,18.56
2022-09-21T12:40:18.039Z,18.65
2022-09-21T12:42:56.183Z,18.68
2022-09-21T12:45:34.321Z,18.64
2022-09-21T12:48:12.529Z,18.52
2022-09-21T12:50:49.534Z,18.34
2022-09-21T12:53:25.274Z,18.17
2022-09-21T12:56:06.441Z,18.00
2022-09-21T12:59:06.758Z,17.83
2022-09-21T13:01:47.078Z,17.65
2022-09-21T13:04:35.560Z,17.52
2022-09-21T13:07:37.468Z,17.41
2022-09-21T13:10:20.324Z,17.33
2022-09-21T13:12:59.476Z,17.30
2022-09-21T13:15:33.836Z,17.38
2022-09-21T13:18:18.297Z,17.42
2022-09-21T13:20:52.377Z,17.51
2022-09-21T13:23:29.577Z,17.51
2022-09-21T13:26:08.759Z,17.40
2022-09-21T13:29:04.848Z,17.17
2022-09-21T13:31:57.655Z,16.79
2022-09-21T13:34:35.919Z,16.50
2022-09-21T13:37:28.972Z,16.32
2022-09-21T13:40:44.270Z,16.10
2022-09-21T13:43:23.448Z,15.93
2022-09-21T13:45:58.382Z,15.80
2022-09-21T13:48:31.474Z,15.71
2022-09-21T13:51:09.053Z,15.66
2022-09-21T13:53:43.304Z,15.62
2022-09-21T13:56:29.001Z,15.57
2022-09-21T13:59:01.243Z,15.54
2022-09-21T14:01:52.750Z,15.54
2022-09-21T14:04:28.119Z,15.57
2022-09-21T14:07:04.009Z,15.58
2022-09-21T14:09:42.708Z,15.56
2022-09-21T14:12:25.382Z,15.55
2022-09-21T14:15:35.929Z,15.52
2022-09-21T14:18:39.827Z,15.43
2022-09-21T14:21:17.418Z,15.38
2022-09-21T14:24:30.097Z,15.37
2022-09-21T14:27:12.582Z,15.33
2022-09-21T14:29:49.626Z,15.29
2022-09-21T14:32:24.669Z,15.28
2022-09-21T14:35:01.575Z,15.28
2022-09-21T14:37:37.866Z,15.31
2022-09-21T14:40:23.781Z,15.36
2022-09-21T14:42:58.560Z,15.37
2022-09-21T14:45:36.011Z,15.32
2022-09-21T14:48:17.326Z,15.27
2022-09-21T14:50:56.541Z,15.26
2022-09-21T14:54:13.367Z,15.28
2022-09-21T14:57:00.389Z,15.36
2022-09-21T14:59:48.928Z,15.40
2022-09-21T15:02:24.363Z,15.38
2022-09-21T15:05:16.815Z,15.33
2022-09-21T15:08:13.021Z,15.23
2022-09-21T15:10:58.815Z,15.07
2022-09-21T15:13:53.623Z,14.94
2022-09-21T15:16:40.540Z,14.82
2022-09-21T15:19:22.300Z,14.73
2022-09-21T15:21:56.069Z,14.70
2022-09-21T15:24:32.831Z,14.67
2022-09-21T15:27:15.012Z,14.67
2022-09-21T15:29:50.167Z,14.66
2022-09-21T15:32:31.495Z,14.63
2022-09-21T15:35:06.783Z,14.56
2022-09-21T15:37:40.557Z,14.52
2022-09-21T15:40:21.946Z,14.48
2022-09-21T15:43:06.569Z,14.43
2022-09-21T15:45:47.256Z,14.37
2022-09-21T15:48:19.964Z,14.36
2022-09-21T15:50:58.004Z,14.37
2022-09-21T15:53:36.351Z,14.36
2022-09-21T15:56:09.177Z,14.35
2022-09-21T15:58:42.660Z,14.31
2022-09-21T16:01:19.478Z,14.27
2022-09-21T16:04:03.475Z,14.24
2022-09-21T16:06:42.723Z,14.19
2022-09-21T16:09:42.669Z,14.16
2022-09-21T16:12:41.822Z,14.16
2022-09-21T16:15:28.433Z,14.16
2022-09-21T16:18:04.133Z,14.12
2022-09-21T16:20:45.827Z,14.11
2022-09-21T16:23:23.351Z,14.09
2022-09-21T16:26:02.237Z,14.07
2022-09-21T16:28:40.428Z,14.08
2022-09-21T16:31:31.641Z,14.09
2022-09-21T16:34:21.740Z,14.07
2022-09-21T16:36:55.121Z,14.05
2022-09-21T16:39:27.445Z,13.99
2022-09-21T16:42:02.872Z,13.93
2022-09-21T16:44:36.871Z,13.89
2022-09-21T16:47:16.565Z,13.85
2022-09-21T16:49:48.521Z,13.82
2022-09-21T16:52:20.560Z,13.77
2022-09-21T16:54:52.752Z,13.73
2022-09-21T16:57:25.972Z,13.71
2022-09-21T16:59:58.171Z,13.71
2022-09-21T17:02:31.553Z,13.70
2022-09-21T17:05:03.600Z,13.67
2022-09-21T17:07:36.361Z,13.62
2022-09-21T17:10:16.505Z,13.58
2022-09-21T17:12:48.493Z,13.55
2022-09-21T17:15:21.262Z,13.54
2022-09-21T17:17:53.263Z,13.53
2022-09-21T17:20:32.194Z,13.49
2022-09-21T17:23:04.986Z,13.47
2022-09-21T17:25:38.245Z,13.47
2022-09-21T17:28:16.179Z,13.45
2022-09-21T17:30:48.673Z,13.42
2022-09-21T17:33:21.601Z,13.39
2022-09-21T17:35:56.856Z,13.36
2022-09-21T17:38:28.931Z,13.35
2022-09-21T17:41:01.396Z,13.34
2022-09-21T17:43:42.165Z,13.32
2022-09-21T17:46:24.540Z,13.31
2022-09-21T17:48:57.547Z,13.30
2022-09-21T17:51:48.094Z,13.29
2022-09-21T17:54:21.164Z,13.27
2022-09-21T17:56:58.943Z,13.26
2022-09-21T17:59:35.023Z,13.23
2022-09-21T18:02:20.850Z,13.19
2022-09-21T18:04:58.167Z,13.19
2022-09-21T18:07:30.987Z,13.19
2022-09-21T18:10:03.906Z,13.17
2022-09-21T18:12:48.923Z,13.15
2022-09-21T18:15:28.849Z,13.14
2022-09-21T18:18:11.196Z,13.13
2022-09-21T18:20:57.011Z,13.12
2022-09-21T18:23:47.775Z,13.10
2022-09-21T18:26:21.011Z,13.07
2022-09-21T18:28:58.285Z,13.06
2022-09-21T18:31:52.470Z,13.04
2022-09-21T18:34:48.160Z,13.00
2022-09-21T18:37:27.632Z,12.97
2022-09-21T18:40:18.802Z,12.95
2022-09-21T18:42:59.203Z,12.93
2022-09-21T18:45:36.249Z,12.91
2022-09-21T18:48:19.311Z,12.92
2022-09-21T18:50:59.971Z,12.92
2022-09-21T18:53:38.683Z,12.90
2022-09-21T18:56:13.066Z,12.88
2022-09-21T18:58:46.727Z,12.86
2022-09-21T19:01:22.863Z,12.85
2022-09-21T19:03:55.905Z,12.83
2022-09-21T19:06:53.953Z,12.80
2022-09-21T19:09:41.935Z,12.79
2022-09-21T19:12:25.405Z,12.76
2022-09-21T19:15:12.450Z,12.74
2022-09-21T19:18:00.445Z,12.73
2022-09-21T19:20:50.972Z,12.72
2022-09-21T19:23:37.960Z,12.70
2022-09-21T19:26:17.639Z,12.69
2022-09-21T19:29:25.420Z,12.66
2022-09-21T19:31:57.762Z,12.65
2022-09-21T19:34:31.834Z,12.63
2022-09-21T19:37:07.764Z,12.58
2022-09-21T19:39:41.363Z,12.54
2022-09-21T19:42:29.886Z,12.53
2022-09-21T19:45:16.257Z,12.53
2022-09-21T19:47:53.624Z,12.53
2022-09-21T19:50:40.099Z,12.51
2022-09-21T19:53:34.061Z,12.51
2022-09-21T19:56:30.499Z,12.50
2022-09-21T19:59:21.020Z,12.48
2022-09-21T20:01:57.801Z,12.46
2022-09-21T20:04:39.338Z,12.44
2022-09-21T20:07:20.465Z,12.41
2022-09-21T20:10:15.165Z,12.38
2022-09-21T20:12:57.847Z,12.37
2022-09-21T20:15:35.647Z,12.35
2022-09-21T20:18:23.462Z,12.35
2022-09-21T20:20:57.453Z,12.34
2022-09-21T20:23:30.490Z,12.32
2022-09-21T20:26:07.243Z,12.31
2022-09-21T20:28:39.998Z,12.28
2022-09-21T20:31:12.869Z,12.24
2022-09-21T20:33:44.973Z,12.21
2022-09-21T20:36:17.169Z,12.17
2022-09-21T20:38:49.221Z,12.15
2022-09-21T20:41:24.528Z,12.12
2022-09-21T20:43:56.910Z,12.09
2022-09-21T20:46:29.023Z,12.08
2022-09-21T20:49:04.932Z,12.05
2022-09-21T20:51:37.238Z,12.02
2022-09-21T20:54:09.394Z,12.00
2022-09-21T20:56:41.602Z,11.99
2022-09-21T20:59:13.615Z,11.98
2022-09-21T21:01:45.742Z,11.96
2022-09-21T21:04:17.868Z,11.95
2022-09-21T21:06:50.329Z,11.91
2022-09-21T21:09:22.444Z,11.89
2022-09-21T21:11:55.251Z,11.87
2022-09-21T21:14:27.391Z,11.85
2022-09-21T21:16:59.408Z,11.82
2022-09-21T21:19:31.649Z,11.80
2022-09-21T21:22:03.736Z,11.77
2022-09-21T21:24:42.124Z,11.76
2022-09-21T21:27:17.992Z,11.73
2022-09-21T21:29:52.726Z,11.71
2022-09-21T21:32:26.913Z,11.69
2022-09-21T21:34:58.922Z,11.68
2022-09-21T21:37:31.547Z,11.67
2022-09-21T21:40:04.426Z,11.66
2022-09-21T21:42:36.466Z,11.65
2022-09-21T21:45:11.593Z,11.62
2022-09-21T21:47:43.632Z,11.61
2022-09-21T21:50:15.821Z,11.59
2022-09-21T21:52:47.833Z,11.56
2022-09-21T21:55:19.909Z,11.54
2022-09-21T21:57:52.210Z,11.51
2022-09-21T22:00:24.381Z,11.50
2022-09-21T22:02:58.019Z,11.47
2022-09-21T22:05:30.097Z,11.44
2022-09-21T22:08:02.358Z,11.42
2022-09-21T22:10:34.888Z,11.38
2022-09-21T22:13:07.116Z,11.36
2022-09-21T22:15:39.448Z,11.33
2022-09-21T22:18:11.482Z,11.30
2022-09-21T22:20:43.612Z,11.28
2022-09-21T22:23:16.229Z,11.26
2022-09-21T22:25:48.332Z,11.25
2022-09-21T22:28:20.434Z,11.25
2022-09-21T22:30:52.521Z,11.23
2022-09-21T22:33:24.671Z,11.22
2022-09-21T22:36:02.043Z,11.21
2022-09-21T22:38:38.063Z,11.20
2022-09-21T22:41:14.437Z,11.16
2022-09-21T22:43:47.641Z,11.15
2022-09-21T22:46:20.061Z,11.14
2022-09-21T22:48:52.647Z,11.14
2022-09-21T22:51:25.486Z,11.12
2022-09-21T22:53:57.932Z,11.11
2022-09-21T22:56:31.876Z,11.11
2022-09-21T22:59:05.786Z,11.11
2022-09-21T23:01:39.617Z,11.08
2022-09-21T23:04:13.676Z,11.04
2022-09-21T23:06:46.594Z,11.02
2022-09-21T23:09:21.455Z,11.01
2022-09-21T23:11:54.118Z,11.01
2022-09-21T23:14:26.173Z,11.01
2022-09-21T23:16:58.217Z,10.99
2022-09-21T23:19:30.225Z,10.98
2022-09-21T23:22:02.365Z,10.99
2022-09-21T23:24:35.113Z,10.98
2022-09-21T23:27:07.851Z,10.98
2022-09-21T23:29:40.047Z,10.99
2022-09-21T23:32:12.284Z,10.98
2022-09-21T23:34:44.568Z,10.97
2022-09-21T23:37:16.683Z,10.98
2022-09-21T23:39:48.661Z,10.98
2022-09-21T23:42:20.834Z,10.98
2022-09-21T23:44:52.967Z,10.98
2022-09-21T23:47:25.083Z,10.97
2022-09-21T23:49:57.166Z,10.95
2022-09-21T23:52:29.512Z,10.94
2022-09-21T23:55:01.631Z,10.91
2022-09-21T23:57:33.674Z,10.87
